West Yellowstone, MT (59758)

1:01 PM MDT on August 24, 2016 (GMT -0600)
Rainbow Pointe | | Change Station
Active Advisory: Air Quality Alert

Elev 6581 ft 44.76 °N, 111.18 °W | Updated 2 seconds ago

Scattered Clouds
Scattered Clouds
63.0 °F
Feels Like 63.0 °F
N
0.4
Wind Variable Wind from South
Gusts 2.5 mph

Today
High -- | Low -- °F
--% Chance of Precip.
Yesterday
High -- | Low -- °F
Precip. -- in
Pressure 30.28 in
Visibility 10.0 miles
Clouds Scattered Clouds 6000 ft
Dew Point 33 °F
Humidity 33%
Rainfall 0.00 in
Snow Depth Not available.
6:38 AM 8:14 PM
Waning Gibbous, 54% visible
METAR KWYS 241850Z AUTO 34008KT 270V350 10SM SCT060 17/00 A3028 RMK AO2
Pressure 30.28 in
Visibility 10.0 miles
Clouds Scattered Clouds 6000 ft
Dew Point 33 °F
Humidity 33%
Rainfall 0.00 in
Snow Depth Not available.
6:38 AM 8:14 PM
Waning Gibbous, 54% visible
METAR KWYS 241850Z AUTO 34008KT 270V350 10SM SCT060 17/00 A3028 RMK AO2

10-Day Weather Forecast

Almanac

Astronomy

Aug. 24, 2016 Rise Set
Actual Time
Civil Twilight
Nautical Twilight
Astronomical Twilight
Moon
Length of Visible Light
Length of Day
Tomorrow will be .
, % of the Moon is Illuminated

Today's Extremes

State Highs State Lows

Community

WunderPhotos

Upload Photos

1,934,684 photos uploaded!

WunderBlog® & News

Nearby

Air Quality

  Air Quality AQ Index Pollutant
Not available.

Snow Depth

Station Depth Elevation

Earthquake Activity

City Distance Mag. Time & Date
Minimum magnitude displayed is 2.5.

Coastal Water Temperatures

Place Temperature

Stations

Nearby Weather Stations

Station Location Temp. Windchill Dew Point Humidity Wind Precip. Elev Updated Type
                   

Watches & Warnings

Air Quality Alert
Issued: National Weather Service
quality at www.Todaysair.Mt.Gov.